• Join FlightAware (Why Join?)
  • Login
  • US Flag 
03:04AM EDT


 

Airport Tracker/Info


-or-


 

Live Flight TrackerFlight Track Log ✈ N96FB ✈ 09-May-2013 ✈ KAPA - KPDT

Flight Track Log - Related Links

Times and Time Zones

All times are in EDT time to prevent confusion due to time zone crossing. See the N96FB flight status page for this flight to view local times or setup timezone preferences in your user account.

Time Position Orientation Groundspeed Altitude Reporting Facility
EDT Latitude Longitude Course Direction KTS MPH feet Rate Location/Type
05:06PM 39.5167 -104.9000 339° North 193 222 9,300  Level Denver TRACON
05:06PM 39.5042 -104.8925 155° Southeast 196 226 9,700 2,160 Climbing Denver Center
05:07PM 39.4614 -104.8558 147° Southeast 197 227 12,100 2,040 Climbing Denver Center
05:08PM 39.5000 -104.8222 34° Northeast 173 199 14,000 1,740 Climbing Denver Center
05:09PM 39.5414 -104.7944 27° Northeast 169 194 15,800 1,260 Climbing Denver Center
05:10PM 40.0407 -104.7548 344° North  Level FlightAware Approximate
05:10PM 39.5850 -104.7619 30° Northeast 170 196 16,700  Level Denver Center
05:11PM 40.1249 -104.7875 339° North  Level FlightAware Approximate
05:11PM 39.6397 -104.7194 31° Northeast 220 253 17,100  Level Denver Center
05:12PM 39.6978 -104.6772 29° Northeast 225 259 18,700 1,200 Climbing Denver Center
05:13PM 39.7522 -104.6369 30° Northeast 226 260 19,700 1,020 Climbing Denver Center
05:14PM 39.8047 -104.6294 North 235 270 20,800 1,260 Climbing Denver Center
05:15PM 39.8789 -104.6478 349° North 228 262 22,400 1,260 Climbing Denver Center
05:16PM 39.9431 -104.6761 341° North 228 262 23,500 1,020 Climbing Denver Center
05:17PM 40.0025 -104.7092 337° Northwest 234 269 24,600 960 Climbing Denver Center
05:18PM 40.0664 -104.7478 335° Northwest 237 273 25,600 960 Climbing Denver Center
05:19PM 40.1269 -104.7803 338° Northwest 236 272 26,600 780 Climbing Denver Center
05:20PM 40.1847 -104.8244 330° Northwest 241 277 27,400 600 Climbing Denver Center
05:21PM 40.2297 -104.9211 301° West 257 296 28,000 240 Climbing Denver Center
05:23PM 40.2747 -105.0156 302° West 282 325 28,000  Level Denver Center
05:24PM 40.3322 -105.1275 304° West 304 350 28,000  Level Denver Center
05:25PM 40.3806 -105.2250 303° West 317 365 28,000  Level Denver Center
05:26PM 40.4303 -105.3283 302° West 312 359 28,000  Level Denver Center
05:27PM 40.4819 -105.4297 304° West 320 368 28,000  Level Denver Center
05:28PM 40.5294 -105.5272 303° West 319 367 28,000  Level Denver Center
05:29PM 40.5761 -105.6264 302° West 321 369 28,000  Level Denver Center
05:30PM 40.6239 -105.7247 303° West 318 366 28,000  Level Denver Center
05:31PM 40.6697 -105.8214 302° West 314 361 28,000  Level Denver Center
05:32PM 40.7147 -105.9175 302° West 310 357 28,000  Level Denver Center
05:33PM 40.7681 -106.0317 302° West 306 352 28,000  Level Denver Center
05:35PM 40.8689 -106.2417 302° West 313 360 28,000  Level Salt Lake Center
05:36PM 40.9131 -106.3361 302° West 315 362 28,000  Level Salt Lake Center
05:37PM 40.9592 -106.4311 303° West 319 367 28,000  Level Denver Center
05:38PM 41.0103 -106.5428 301° West 319 367 28,000  Level Denver Center
05:39PM 41.0550 -106.6369 302° West 316 364 28,000  Level Denver Center
05:40PM 41.1069 -106.7475 302° West 318 366 28,000  Level Denver Center
05:41PM 41.1519 -106.8431 302° West 320 368 28,000  Level Denver Center
05:42PM 41.2008 -106.9531 301° West 314 361 28,000  Level Denver Center
05:43PM 41.2442 -107.0478 301° West 315 362 28,000  Level Denver Center
05:44PM 41.2964 -107.1561 303° West 313 360 28,000  Level Denver Center
05:45PM 41.3378 -107.2508 300° West 312 359 28,000  Level Denver Center
05:46PM 41.3883 -107.3631 301° West 316 364 28,000  Level Denver Center
05:48PM 41.4311 -107.4578 301° West 314 361 28,000  Level Denver Center
05:49PM 41.4750 -107.5531 302° West 315 362 28,000  Level Denver Center
05:50PM 41.5239 -107.6653 300° West 315 362 28,000  Level Denver Center
05:51PM 41.5692 -107.7606 302° West 317 365 28,000  Level Denver Center
05:52PM 41.6183 -107.8739 300° West 316 364 28,000  Level Denver Center
05:53PM 41.6767 -108.0031 301° West 318 366 28,000  Level Denver Center
05:54PM 41.7128 -108.0850 301° West 320 368 28,000  Level Denver Center
05:55PM 41.7578 -108.1825 302° West 319 367 28,000  Level Salt Lake Center
05:56PM 41.8075 -108.2986 300° West 321 369 28,000  Level Salt Lake Center
05:57PM 41.8511 -108.3961 301° West 321 369 28,000  Level Salt Lake Center
05:58PM 41.9014 -108.5131 300° West 323 372 28,000  Level Salt Lake Center
05:59PM 41.9436 -108.6106 300° West 320 368 28,000  Level Salt Lake Center
06:00PM 41.9950 -108.7250 301° West 320 368 28,000  Level Salt Lake Center
06:01PM 42.0372 -108.8233 300° West 320 368 28,000  Level Salt Lake Center
06:02PM 42.0872 -108.9392 300° West 321 369 28,000  Level Salt Lake Center
06:03PM 42.1292 -109.0381 300° West 319 367 28,000  Level Salt Lake Center
06:04PM 42.1786 -109.1517 300° West 317 365 28,000  Level Salt Lake Center
06:05PM 42.2206 -109.2497 300° West 316 364 28,000  Level Salt Lake Center
06:06PM 42.2692 -109.3667 299° West 320 368 28,000  Level Salt Lake Center
06:07PM 42.3103 -109.4653 299° West 317 365 28,000  Level Salt Lake Center
06:08PM 42.3594 -109.5806 300° West 317 365 28,000  Level Salt Lake Center
06:09PM 42.4011 -109.6806 299° West 319 367 28,000  Level Salt Lake Center
06:10PM 42.4431 -109.7800 300° West 318 366 28,000  Level Salt Lake Center
06:11PM 42.4925 -109.8969 300° West 321 369 28,000  Level Salt Lake Center
06:12PM 42.5350 -109.9969 300° West 319 367 28,000  Level Salt Lake Center
06:13PM 42.5833 -110.1136 299° West 318 366 28,000  Level Salt Lake Center
06:14PM 42.6250 -110.2131 300° West 318 366 28,000  Level Salt Lake Center
06:15PM 42.6728 -110.3311 299° West 318 366 28,000  Level Salt Lake Center
06:16PM 42.7147 -110.4294 300° West 314 361 28,000  Level Salt Lake Center
06:17PM 42.7625 -110.5469 299° West 318 366 28,000  Level Salt Lake Center
06:18PM 42.8092 -110.6517 301° West 315 362 28,000  Level Salt Lake Center
06:20PM 42.8508 -110.7531 299° West 319 367 28,000  Level Salt Lake Center
06:21PM 42.8969 -110.8717 298° West 318 366 28,000  Level Salt Lake Center
06:22PM 42.9381 -110.9717 299° West 315 362 28,000  Level Salt Lake Center
06:23PM 42.9708 -111.0758 293° West 312 359 28,000  Level Salt Lake Center
06:24PM 42.9747 -111.2164 272° West 328 377 28,000  Level Salt Lake Center
06:25PM 42.9783 -111.3328 272° West 323 372 28,000  Level Salt Lake Center
06:26PM 42.9831 -111.4717 273° West 330 380 28,000  Level Salt Lake Center
06:27PM 42.9858 -111.5864 272° West 325 374 28,100  Climbing Salt Lake Center
06:28PM 42.9819 -111.7236 268° West 325 374 28,100  Level Salt Lake Center
06:29PM 42.9825 -111.8367 270° West 317 365 28,100  Level Salt Lake Center
06:30PM 43.0000 -111.9656 281° West 311 358 28,100  Level Salt Lake Center
06:31PM 43.0403 -112.0606 300° West 302 348 28,100  Level Salt Lake Center
06:32PM 43.0822 -112.1525 302° West 299 344 28,100  Level Salt Lake Center
06:33PM 43.1303 -112.2608 301° West 299 344 28,100  Level Salt Lake Center
06:34PM 43.1711 -112.3547 301° West 301 346 28,100  Level Salt Lake Center
06:35PM 43.2203 -112.4675 301° West 306 352 28,100  Level Salt Lake Center
06:36PM 43.2628 -112.5622 302° West 306 352 28,100  Level Salt Lake Center
06:37PM 43.3100 -112.6728 300° West 301 346 28,100  Level Salt Lake Center
06:38PM 43.3503 -112.7694 300° West 303 349 28,100  Level Salt Lake Center
06:39PM 43.3942 -112.8664 302° West 310 357 28,100  Level Salt Lake Center
06:40PM 43.4411 -112.9789 300° West 306 352 28,100  Level Salt Lake Center
06:41PM 43.4817 -113.0750 300° West 304 350 28,100  Level Salt Lake Center
06:42PM 43.5300 -113.1864 301° West 301 346 28,100  Level Salt Lake Center
06:43PM 43.5689 -113.2811 300° West 296 341 28,100  Level Salt Lake Center
06:44PM 43.6147 -113.3903 300° West 293 337 28,100  Level Salt Lake Center
06:45PM 43.6547 -113.4889 299° West 302 348 28,100  Level Salt Lake Center
06:46PM 43.7006 -113.5939 301° West 331 381 28,100  Level Salt Lake Center
06:47PM 43.7497 -113.7125 300° West 323 372 28,100  Level Salt Lake Center
06:48PM 43.7922 -113.8144 300° West 320 368 28,100  Level Salt Lake Center
06:49PM 43.8425 -113.9353 300° West 320 368 28,100  Level Salt Lake Center
06:50PM 43.8847 -114.0375 300° West 318 366 28,100  Level Salt Lake Center
06:51PM 43.9244 -114.1403 298° West 316 364 28,100  Level Salt Lake Center
06:52PM 43.9722 -114.2583 299° West 315 362 28,100  Level Salt Lake Center
06:53PM 44.0183 -114.3567 303° West 316 364 28,100  Level Salt Lake Center
06:55PM 44.0656 -114.4750 299° West 314 361 28,100  Level Salt Lake Center
06:56PM 44.1064 -114.5761 299° West 314 361 28,100  Level Salt Lake Center
06:57PM 44.1528 -114.6947 299° West 312 359 28,100  Level Salt Lake Center
06:58PM 44.1944 -114.7961 300° West 314 361 28,100  Level Salt Lake Center
06:59PM 44.2347 -114.8986 299° West 314 361 28,100  Level Salt Lake Center
07:00PM 44.2808 -115.0172 299° West 312 359 28,100  Level Salt Lake Center
07:01PM 44.3211 -115.1183 299° West 311 358 28,100  Level Salt Lake Center
07:02PM 44.3664 -115.2389 298° West 313 360 28,100  Level Salt Lake Center
07:03PM 44.4067 -115.3414 299° West 315 362 28,100  Level Salt Lake Center
07:04PM 44.4525 -115.4611 298° West 314 361 28,100  Level Salt Lake Center
07:05PM 44.4928 -115.5631 299° West 314 361 28,100  Level Salt Lake Center
07:06PM 44.5319 -115.6672 298° West 315 362 28,100  Level Salt Lake Center
07:07PM 44.5789 -115.7881 299° West 317 365 28,100  Level Salt Lake Center
07:08PM 44.6197 -115.8917 299° West 320 368 28,100  Level Salt Lake Center
07:09PM 44.6669 -116.0133 299° West 320 368 28,100  Level Salt Lake Center
07:10PM 44.7069 -116.1178 298° West 320 368 28,100  Level Salt Lake Center
07:11PM 44.7528 -116.2408 298° West 321 369 28,100  Level Salt Lake Center
07:12PM 44.7919 -116.3453 298° West 319 367 28,100  Level Salt Lake Center
07:13PM 44.8392 -116.4672 299° West 317 365 28,100  Level Salt Lake Center
07:14PM 44.8783 -116.5722 298° West 318 366 28,100  Level Salt Lake Center
07:15PM 44.9169 -116.6786 297° West 317 365 28,100  Level Seattle Center
07:16PM 44.9561 -116.7819 298° West 315 362 28,100  Level Seattle Center
07:17PM 45.0017 -116.9047 298° West 315 362 28,100  Level Seattle Center
07:18PM 45.0406 -117.0094 298° West 316 364 28,100  Level Seattle Center
07:19PM 45.0844 -117.1294 297° West 308 354 28,100  Level Seattle Center
07:20PM 45.1194 -117.2219 298° West 281 323 28,100  Level Seattle Center
07:21PM 45.1528 -117.3114 298° West 267 307 28,100  Level Seattle Center
07:22PM 45.1864 -117.4136 295° West 260 299 28,100  Level Seattle Center
07:23PM 45.2203 -117.5019 299° West 255 293 28,100 -60 Level Seattle Center
07:24PM 45.2514 -117.5933 296° West 258 297 28,000 -1,140 Descending Seattle Center
07:25PM 45.2869 -117.6936 297° West 287 330 25,800 -1,920 Descending Seattle Center
07:26PM 45.3275 -117.8028 298° West 312 359 24,200 -1,560 Descending Seattle Center
07:27PM 45.3658 -117.9025 299° West 291 335 22,700 -1,620 Descending Seattle Center
07:28PM 45.4039 -118.0047 298° West 289 333 21,000 -1,980 Descending Seattle Center
07:29PM 45.4389 -118.1081 296° West 293 337 18,700 -2,340 Descending Seattle Center
07:30PM 45.4733 -118.2119 295° West 292 336 16,300 -2,580 Descending Seattle Center
07:31PM 45.5181 -118.3386 297° West 298 343 13,500 -2,520 Descending Seattle Center
07:32PM 45.5572 -118.4444 298° West 303 349 11,200 -2,100 Descending Seattle Center
07:33PM 45.5939 -118.5447 298° West 295 339 9,300 -1,980 Descending Seattle Center
07:34PM 45.6286 -118.6258 301° West 260 299 7,200 -1,920 Descending Seattle Center
07:35PM 45.6494 -118.7028 291° West 239 275 5,400 -1,620 Descending Seattle Center
07:36PM 45.6542 -118.7775 275° West 212 244 3,900 -1,080 Descending Seattle Center
07:37PM 45.6839 -118.8300 309° West 200 230 3,300 -600 Descending Seattle Center